createdAt,value
2019-05-07T00:00:15.515Z,90.081787
2019-05-07T00:01:15.592Z,90.185547
2019-05-07T00:02:15.663Z,90.185547
2019-05-07T00:03:15.737Z,90.081787
2019-05-07T00:04:15.818Z,90.081787
2019-05-07T00:05:15.936Z,90.185547
2019-05-07T00:06:16.035Z,90.594482
2019-05-07T00:07:16.116Z,90.490723
2019-05-07T00:08:16.193Z,90.283203
2019-05-07T00:09:16.289Z,90.185547
2019-05-07T00:10:16.415Z,90.118408
2019-05-07T00:11:16.534Z,90.020752
2019-05-07T00:12:16.604Z,90.020752
2019-05-07T00:13:16.664Z,90.020752
2019-05-07T00:14:16.728Z,90.118408
2019-05-07T00:15:16.879Z,90.118408
2019-05-07T00:16:16.984Z,90.222168
2019-05-07T00:17:17.074Z,90.429688
2019-05-07T00:18:17.197Z,90.533447
2019-05-07T00:19:17.249Z,90.533447
2019-05-07T00:20:17.325Z,90.533447
2019-05-07T00:21:17.482Z,90.637207
2019-05-07T00:22:17.569Z,90.740967
2019-05-07T00:23:17.696Z,90.740967
2019-05-07T00:24:17.737Z,90.740967
2019-05-07T00:25:17.803Z,90.740967
2019-05-07T00:26:17.915Z,90.740967
2019-05-07T00:27:17.996Z,90.802002
2019-05-07T00:28:18.062Z,90.740967
2019-05-07T00:29:18.146Z,90.637207
2019-05-07T00:30:18.207Z,90.533447
2019-05-07T00:31:18.308Z,90.429688
2019-05-07T00:32:18.406Z,90.533447
2019-05-07T00:33:18.476Z,90.637207
2019-05-07T00:34:18.561Z,90.533447
2019-05-07T00:35:18.665Z,90.429688
2019-05-07T00:36:18.761Z,90.222168
2019-05-07T00:37:18.861Z,90.222168
2019-05-07T00:38:18.952Z,90.222168
2019-05-07T00:39:19.016Z,90.222168
2019-05-07T00:40:19.098Z,90.222168
2019-05-07T00:41:19.158Z,90.325928
2019-05-07T00:42:22.020Z,90.325928
2019-05-07T00:43:22.387Z,90.429688
2019-05-07T00:44:22.061Z,90.325928
2019-05-07T00:45:23.103Z,90.429688
2019-05-07T00:46:22.393Z,90.533447
2019-05-07T00:47:22.220Z,90.679932
2019-05-07T00:48:20.635Z,90.783691
2019-05-07T00:49:19.700Z,90.887451
2019-05-07T00:50:19.778Z,90.991211
2019-05-07T00:51:19.855Z,90.991211
2019-05-07T00:52:19.952Z,91.094971
2019-05-07T00:53:20.048Z,90.887451
2019-05-07T00:54:22.990Z,90.783691
2019-05-07T00:55:22.735Z,90.783691
2019-05-07T00:56:22.286Z,90.783691
2019-05-07T00:57:22.867Z,90.887451
2019-05-07T00:58:24.044Z,90.887451
2019-05-07T00:59:22.520Z,90.887451
2019-05-07T01:00:22.297Z,90.991211
2019-05-07T01:01:22.672Z,91.094971
2019-05-07T01:02:22.387Z,90.991211
2019-05-07T01:03:22.245Z,90.991211
2019-05-07T01:04:22.840Z,91.19873
2019-05-07T01:05:23.045Z,91.19873
2019-05-07T01:06:22.418Z,90.991211
2019-05-07T01:07:22.856Z,90.887451
2019-05-07T01:08:22.489Z,90.991211
2019-05-07T01:09:22.851Z,91.094971
2019-05-07T01:10:22.239Z,91.094971
2019-05-07T01:11:22.714Z,91.094971
2019-05-07T01:12:22.153Z,90.991211
2019-05-07T01:13:23.328Z,90.991211
2019-05-07T01:14:22.771Z,90.991211
2019-05-07T01:15:30.608Z,90.887451
2019-05-07T01:16:22.616Z,90.887451
2019-05-07T01:17:22.643Z,90.887451
2019-05-07T01:18:23.385Z,90.887451
2019-05-07T01:19:22.055Z,90.783691
2019-05-07T01:20:22.173Z,90.783691
2019-05-07T01:21:22.672Z,90.783691
2019-05-07T01:22:22.356Z,90.783691
2019-05-07T01:23:22.823Z,90.783691
2019-05-07T01:24:23.228Z,90.679932
2019-05-07T01:25:22.310Z,90.783691
2019-05-07T01:26:22.359Z,90.887451
2019-05-07T01:27:22.713Z,90.887451
2019-05-07T01:28:22.598Z,90.887451
2019-05-07T01:29:22.749Z,90.991211
2019-05-07T01:30:23.189Z,90.991211
2019-05-07T01:31:22.707Z,91.19873
2019-05-07T01:32:22.790Z,91.503906
2019-05-07T01:33:22.894Z,91.711426
2019-05-07T01:34:23.170Z,91.607666
2019-05-07T01:35:23.024Z,91.711426
2019-05-07T01:36:23.075Z,91.85791
2019-05-07T01:37:23.258Z,91.85791
2019-05-07T01:38:23.250Z,91.96167
2019-05-07T01:39:23.366Z,91.96167
2019-05-07T01:40:24.386Z,92.272949
2019-05-07T01:41:23.438Z,92.376709
2019-05-07T01:42:23.496Z,92.376709
2019-05-07T01:43:24.589Z,92.584229
2019-05-07T01:44:23.688Z,92.681885
2019-05-07T01:45:24.842Z,93.035889
2019-05-07T01:46:24.924Z,93.035889
2019-05-07T01:47:23.912Z,92.932129
2019-05-07T01:48:23.898Z,92.828369
2019-05-07T01:49:24.994Z,92.828369
2019-05-07T01:50:24.056Z,92.828369
2019-05-07T01:51:24.155Z,92.724609
2019-05-07T01:52:24.234Z,92.828369
2019-05-07T01:53:24.336Z,92.724609
2019-05-07T01:54:24.464Z,92.828369
2019-05-07T01:55:24.548Z,93.035889
2019-05-07T01:56:24.625Z,93.139648
2019-05-07T01:57:24.708Z,93.035889
2019-05-07T01:58:24.787Z,93.035889
2019-05-07T01:59:24.929Z,93.035889
2019-05-07T02:00:25.007Z,92.993164
2019-05-07T02:01:25.084Z,92.889404
2019-05-07T02:02:25.167Z,92.889404
2019-05-07T02:03:25.247Z,92.889404
2019-05-07T02:04:25.333Z,92.889404
2019-05-07T02:05:25.392Z,92.785645
2019-05-07T02:06:25.456Z,92.785645
2019-05-07T02:07:25.510Z,92.889404
2019-05-07T02:08:25.580Z,92.889404
2019-05-07T02:09:25.684Z,92.993164
2019-05-07T02:10:25.754Z,92.993164
2019-05-07T02:11:25.848Z,92.993164
2019-05-07T02:12:25.899Z,92.993164
2019-05-07T02:13:25.974Z,92.993164
2019-05-07T02:14:26.070Z,92.993164
2019-05-07T02:15:26.149Z,92.993164
2019-05-07T02:16:26.249Z,92.889404
2019-05-07T02:17:26.313Z,92.889404
2019-05-07T02:18:26.387Z,92.889404
2019-05-07T02:19:26.494Z,92.889404
2019-05-07T02:20:26.577Z,92.785645
2019-05-07T02:21:26.658Z,92.889404
2019-05-07T02:22:26.723Z,92.785645
2019-05-07T02:23:26.818Z,92.785645
2019-05-07T02:24:26.879Z,92.785645
2019-05-07T02:25:27.009Z,92.681885
2019-05-07T02:26:27.058Z,92.681885
2019-05-07T02:27:27.113Z,92.681885
2019-05-07T02:28:27.245Z,92.785645
2019-05-07T02:29:27.316Z,92.785645
2019-05-07T02:30:27.443Z,92.993164
2019-05-07T02:31:27.481Z,92.993164
2019-05-07T02:32:27.523Z,92.993164
2019-05-07T02:33:27.583Z,92.993164
2019-05-07T02:34:27.643Z,92.993164
2019-05-07T02:35:27.750Z,93.096924
2019-05-07T02:36:27.832Z,93.096924
2019-05-07T02:37:35.340Z,93.096924
2019-05-07T02:38:27.894Z,92.993164
2019-05-07T02:39:27.976Z,93.096924
2019-05-07T02:40:28.045Z,93.096924
2019-05-07T02:41:28.150Z,93.096924
2019-05-07T02:42:28.212Z,93.096924
2019-05-07T02:43:28.325Z,92.993164
2019-05-07T02:44:28.399Z,92.889404
2019-05-07T02:45:28.526Z,92.889404
2019-05-07T02:46:31.782Z,92.889404
2019-05-07T02:47:32.835Z,92.889404
2019-05-07T02:48:28.677Z,92.993164
2019-05-07T02:49:28.735Z,92.993164
2019-05-07T02:50:28.797Z,92.993164
2019-05-07T02:51:28.912Z,92.889404
2019-05-07T02:52:28.992Z,92.889404
2019-05-07T02:53:29.070Z,92.889404
2019-05-07T02:54:29.150Z,92.889404
2019-05-07T02:55:29.238Z,92.785645
2019-05-07T02:56:29.332Z,92.785645
2019-05-07T02:57:29.438Z,92.681885
2019-05-07T02:58:29.469Z,92.584229
2019-05-07T02:59:29.545Z,92.584229
2019-05-07T03:00:29.639Z,92.584229
2019-05-07T03:01:29.719Z,92.681885
2019-05-07T03:02:32.975Z,92.681885
2019-05-07T03:03:29.841Z,92.785645
2019-05-07T03:04:33.088Z,92.681885
2019-05-07T03:05:29.955Z,92.681885
2019-05-07T03:06:30.040Z,92.681885
2019-05-07T03:07:33.169Z,92.724609
2019-05-07T03:08:32.827Z,92.626953
2019-05-07T03:09:32.651Z,92.626953
2019-05-07T03:10:33.573Z,92.724609
2019-05-07T03:11:33.272Z,92.724609
2019-05-07T03:12:33.420Z,92.724609
2019-05-07T03:13:33.598Z,92.724609
2019-05-07T03:14:32.372Z,92.724609
2019-05-07T03:15:33.128Z,92.724609
2019-05-07T03:16:39.409Z,92.724609
2019-05-07T03:17:33.280Z,92.828369
2019-05-07T03:18:33.384Z,92.828369
2019-05-07T03:19:33.097Z,92.932129
2019-05-07T03:20:33.377Z,92.932129
2019-05-07T03:21:32.839Z,93.035889
2019-05-07T03:22:33.740Z,93.139648
2019-05-07T03:23:33.732Z,93.139648
2019-05-07T03:24:34.194Z,93.139648
2019-05-07T03:25:33.784Z,93.139648
2019-05-07T03:26:34.054Z,93.243408
2019-05-07T03:27:34.019Z,93.139648
2019-05-07T03:28:33.543Z,93.139648
2019-05-07T03:29:33.218Z,93.139648
2019-05-07T03:30:35.859Z,93.139648
2019-05-07T03:31:36.007Z,93.035889
2019-05-07T03:32:37.698Z,93.035889
2019-05-07T03:33:36.507Z,93.078613
2019-05-07T03:34:36.617Z,93.182373
2019-05-07T03:35:36.967Z,93.286133
2019-05-07T03:36:35.376Z,93.286133
2019-05-07T03:37:36.104Z,93.286133
2019-05-07T03:38:33.613Z,93.286133
2019-05-07T03:39:33.756Z,93.286133
2019-05-07T03:40:33.137Z,93.286133
2019-05-07T03:41:33.354Z,93.389893
2019-05-07T03:42:33.468Z,93.493652
2019-05-07T03:43:33.146Z,93.493652
2019-05-07T03:44:33.783Z,93.493652
2019-05-07T03:45:33.565Z,93.493652
2019-05-07T03:46:33.638Z,93.493652
2019-05-07T03:47:33.392Z,93.493652
2019-05-07T03:48:33.207Z,93.597412
2019-05-07T03:49:34.294Z,93.804932
2019-05-07T03:50:33.752Z,93.969727
2019-05-07T03:51:32.974Z,94.073486
2019-05-07T03:52:33.814Z,94.073486
2019-05-07T03:53:33.774Z,93.969727
2019-05-07T03:54:33.926Z,93.969727
2019-05-07T03:55:33.299Z,93.865967
2019-05-07T03:56:33.976Z,93.969727
2019-05-07T03:57:33.634Z,94.073486
2019-05-07T03:58:34.415Z,94.073486
2019-05-07T03:59:34.137Z,94.073486
2019-05-07T04:00:33.523Z,94.073486
2019-05-07T04:01:33.610Z,94.073486
2019-05-07T04:02:33.658Z,93.969727
2019-05-07T04:03:34.486Z,93.969727
2019-05-07T04:04:33.879Z,93.969727
2019-05-07T04:05:34.430Z,93.865967
2019-05-07T04:06:34.063Z,93.762207
2019-05-07T04:07:34.244Z,93.762207
2019-05-07T04:08:35.275Z,93.762207
2019-05-07T04:09:34.365Z,93.658447
2019-05-07T04:10:34.465Z,93.554688
2019-05-07T04:11:34.458Z,93.511963
2019-05-07T04:12:34.508Z,93.408203
2019-05-07T04:13:34.498Z,93.450928
2019-05-07T04:14:34.876Z,93.408203
2019-05-07T04:15:34.591Z,93.304443
2019-05-07T04:16:34.571Z,93.304443
2019-05-07T04:17:34.562Z,93.096924
2019-05-07T04:18:34.752Z,93.096924
2019-05-07T04:19:34.747Z,93.200684
2019-05-07T04:20:34.766Z,93.304443
2019-05-07T04:21:34.779Z,93.304443
2019-05-07T04:22:34.991Z,93.304443
2019-05-07T04:23:34.839Z,93.200684
2019-05-07T04:24:34.870Z,93.096924
2019-05-07T04:25:34.957Z,93.096924
2019-05-07T04:26:35.012Z,93.096924
2019-05-07T04:27:35.022Z,93.096924
2019-05-07T04:28:36.199Z,93.096924
2019-05-07T04:29:35.264Z,93.096924
2019-05-07T04:30:35.227Z,93.096924
2019-05-07T04:31:35.249Z,93.200684
2019-05-07T04:32:35.216Z,93.200684
2019-05-07T04:33:35.234Z,93.157959
2019-05-07T04:34:35.256Z,93.054199
2019-05-07T04:35:35.248Z,92.950439
2019-05-07T04:36:35.232Z,92.84668
2019-05-07T04:37:35.268Z,92.74292
2019-05-07T04:38:35.293Z,92.74292
2019-05-07T04:39:35.339Z,92.74292
2019-05-07T04:40:35.333Z,92.63916
2019-05-07T04:41:35.348Z,92.63916
2019-05-07T04:42:35.350Z,92.541504
2019-05-07T04:43:35.393Z,92.541504
2019-05-07T04:44:35.419Z,92.541504
2019-05-07T04:45:35.420Z,92.437744
2019-05-07T04:46:35.422Z,92.333984
2019-05-07T04:47:42.854Z,92.126465
2019-05-07T04:48:36.522Z,92.022705
2019-05-07T04:49:35.700Z,92.022705
2019-05-07T04:50:42.842Z,92.022705
2019-05-07T04:51:36.879Z,92.022705
2019-05-07T04:52:35.878Z,92.126465
2019-05-07T04:53:37.054Z,92.126465
2019-05-07T04:54:36.089Z,92.126465
2019-05-07T04:55:36.093Z,92.230225
2019-05-07T04:56:36.105Z,92.230225
2019-05-07T04:57:36.111Z,92.333984
2019-05-07T04:58:36.117Z,92.333984
2019-05-07T04:59:36.143Z,92.437744
2019-05-07T05:00:36.180Z,92.437744
2019-05-07T05:01:36.202Z,92.437744
2019-05-07T05:02:36.229Z,92.39502
2019-05-07T05:03:39.087Z,92.39502
2019-05-07T05:04:36.260Z,92.39502
2019-05-07T05:05:36.293Z,92.39502
2019-05-07T05:06:36.283Z,92.1875
2019-05-07T05:07:36.297Z,92.08374
2019-05-07T05:08:36.356Z,91.97998
2019-05-07T05:09:36.362Z,92.08374
2019-05-07T05:10:36.440Z,92.1875
2019-05-07T05:11:36.468Z,92.248535
2019-05-07T05:12:36.483Z,92.144775
2019-05-07T05:13:36.492Z,91.833496
2019-05-07T05:14:36.505Z,91.625977
2019-05-07T05:15:36.601Z,91.418457
2019-05-07T05:16:36.604Z,91.418457
2019-05-07T05:17:47.889Z,91.418457
2019-05-07T05:18:37.775Z,91.418457
2019-05-07T05:19:37.779Z,91.418457
2019-05-07T05:20:36.879Z,91.418457
2019-05-07T05:21:37.880Z,91.418457
2019-05-07T05:22:36.939Z,91.418457
2019-05-07T05:23:36.933Z,91.278076
2019-05-07T05:24:36.944Z,91.278076
2019-05-07T05:25:36.997Z,91.174316
2019-05-07T05:26:37.017Z,91.070557
2019-05-07T05:27:37.046Z,91.070557
2019-05-07T05:28:37.040Z,91.070557
2019-05-07T05:29:37.056Z,90.655518
2019-05-07T05:30:37.076Z,90.447998
2019-05-07T05:31:37.084Z,90.350342
2019-05-07T05:32:37.120Z,90.142822
2019-05-07T05:33:37.118Z,90.039062
2019-05-07T05:34:37.134Z,90.142822
2019-05-07T05:35:37.196Z,90.350342
2019-05-07T05:36:37.257Z,90.447998
2019-05-07T05:37:37.285Z,90.447998
2019-05-07T05:38:37.278Z,90.447998
2019-05-07T05:39:37.329Z,90.447998
2019-05-07T05:40:37.335Z,90.551758
2019-05-07T05:41:37.946Z,90.655518
2019-05-07T05:42:37.462Z,90.759277
2019-05-07T05:43:37.486Z,90.759277
2019-05-07T05:44:37.499Z,90.551758
2019-05-07T05:45:37.519Z,90.411377
2019-05-07T05:46:37.557Z,90.307617
2019-05-07T05:47:37.564Z,89.996338
2019-05-07T05:48:37.578Z,89.788818
2019-05-07T05:49:37.602Z,89.685059
2019-05-07T05:50:37.623Z,89.788818
2019-05-07T05:51:37.691Z,89.581299
2019-05-07T05:52:37.695Z,89.581299
2019-05-07T05:53:37.719Z,89.685059
2019-05-07T05:54:37.725Z,89.685059
2019-05-07T05:55:37.739Z,89.685059
2019-05-07T05:56:37.776Z,89.544678
2019-05-07T05:57:37.814Z,89.544678
2019-05-07T05:58:37.851Z,89.648438
2019-05-07T05:59:48.690Z,89.746094
2019-05-07T06:00:39.011Z,89.648438
2019-05-07T06:01:38.066Z,89.605713
2019-05-07T06:02:38.091Z,89.501953
2019-05-07T06:03:39.092Z,89.190674
2019-05-07T06:04:38.103Z,88.885498
2019-05-07T06:05:38.267Z,88.470459
2019-05-07T06:06:38.347Z,87.854004
2019-05-07T06:07:38.377Z,87.854004
2019-05-07T06:08:38.384Z,87.854004
2019-05-07T06:09:38.415Z,87.957764
2019-05-07T06:10:39.407Z,87.750244
2019-05-07T06:11:39.720Z,87.542725
2019-05-07T06:12:39.702Z,87.646484
2019-05-07T06:13:41.467Z,87.341309
2019-05-07T06:14:38.740Z,87.438965
2019-05-07T06:15:38.737Z,87.542725
2019-05-07T06:16:38.807Z,87.438965
2019-05-07T06:17:38.807Z,87.194824
2019-05-07T06:18:38.814Z,87.194824
2019-05-07T06:19:38.808Z,87.298584
2019-05-07T06:20:38.822Z,87.402344
2019-05-07T06:21:38.856Z,87.506104
2019-05-07T06:22:38.889Z,87.70752
2019-05-07T06:23:38.895Z,87.811279
2019-05-07T06:24:38.886Z,87.70752
2019-05-07T06:25:38.884Z,87.60376
2019-05-07T06:26:39.960Z,87.60376
2019-05-07T06:27:41.771Z,87.091064
2019-05-07T06:28:42.315Z,87.194824
2019-05-07T06:29:42.377Z,87.194824
2019-05-07T06:30:41.781Z,87.091064
2019-05-07T06:31:42.159Z,87.054443
2019-05-07T06:32:42.666Z,86.846924
2019-05-07T06:33:40.331Z,86.743164
2019-05-07T06:34:44.068Z,86.334229
2019-05-07T06:35:42.260Z,86.334229
2019-05-07T06:36:42.370Z,86.535645
2019-05-07T06:37:42.359Z,86.535645
2019-05-07T06:38:39.820Z,86.431885
2019-05-07T06:39:41.945Z,86.431885
2019-05-07T06:40:39.837Z,86.535645
2019-05-07T06:41:41.823Z,86.804199
2019-05-07T06:42:39.894Z,86.700439
2019-05-07T06:43:42.133Z,86.395264
2019-05-07T06:44:39.909Z,86.700439
2019-05-07T06:45:42.003Z,86.499023
2019-05-07T06:46:41.799Z,85.882568
2019-05-07T06:47:40.003Z,85.980225
2019-05-07T06:48:43.284Z,86.187744
2019-05-07T06:49:39.948Z,86.248779
2019-05-07T06:50:43.019Z,86.151123
2019-05-07T06:51:41.919Z,86.047363
2019-05-07T06:52:42.525Z,85.632324
2019-05-07T06:53:42.101Z,85.736084
2019-05-07T06:54:42.811Z,85.430908
2019-05-07T06:55:40.194Z,85.430908
2019-05-07T06:56:42.100Z,84.606934
2019-05-07T06:57:42.306Z,82.861328
2019-05-07T06:58:41.944Z,83.679199
2019-05-07T06:59:42.320Z,84.094238
2019-05-07T07:00:42.195Z,84.399414
2019-05-07T07:01:42.289Z,84.399414
2019-05-07T07:02:41.977Z,84.197998
2019-05-07T07:03:41.957Z,83.374023
2019-05-07T07:04:42.323Z,83.575439
2019-05-07T07:05:42.524Z,83.886719
2019-05-07T07:06:42.581Z,83.886719
2019-05-07T07:07:42.187Z,83.990479
2019-05-07T07:08:41.943Z,83.270264
2019-05-07T07:09:42.401Z,82.958984
2019-05-07T07:10:42.603Z,81.829834
2019-05-07T07:11:42.353Z,81.970215
2019-05-07T07:12:42.350Z,82.58667
2019-05-07T07:13:42.647Z,82.550049
2019-05-07T07:14:42.328Z,82.653809
2019-05-07T07:15:42.682Z,82.446289
2019-05-07T07:16:42.026Z,82.69043
2019-05-07T07:17:42.045Z,82.958984
2019-05-07T07:18:49.371Z,81.213379
2019-05-07T07:19:42.763Z,81.048584
2019-05-07T07:20:42.980Z,81.665039
2019-05-07T07:21:42.137Z,82.037354
2019-05-07T07:22:42.551Z,82.141113
2019-05-07T07:23:42.905Z,81.524658
2019-05-07T07:24:42.377Z,81.622314
2019-05-07T07:25:42.960Z,82.037354
2019-05-07T07:26:42.181Z,82.098389
2019-05-07T07:27:42.906Z,81.585693
2019-05-07T07:28:42.911Z,81.585693
2019-05-07T07:29:42.549Z,81.140137
2019-05-07T07:30:42.027Z,81.243896
2019-05-07T07:31:42.569Z,80.932617
2019-05-07T07:32:42.475Z,80.932617
2019-05-07T07:33:43.464Z,79.766846
2019-05-07T07:34:42.610Z,78.22876
2019-05-07T07:35:42.864Z,77.91748
2019-05-07T07:36:42.324Z,77.813721
2019-05-07T07:37:43.039Z,78.02124
2019-05-07T07:38:42.113Z,78.533936
2019-05-07T07:39:42.977Z,78.326416
2019-05-07T07:40:42.250Z,77.062988
2019-05-07T07:41:42.259Z,76.751709
2019-05-07T07:42:42.615Z,77.7771
2019-05-07T07:43:42.083Z,78.192139
2019-05-07T07:44:42.607Z,77.435303
2019-05-07T07:45:42.188Z,77.642822
2019-05-07T07:46:42.475Z,78.015137
2019-05-07T07:47:42.266Z,76.239014
2019-05-07T07:48:43.474Z,75.622559
2019-05-07T07:49:43.267Z,75.927734
2019-05-07T07:50:42.302Z,75.073242
2019-05-07T07:51:45.404Z,72.924805
2019-05-07T07:52:42.483Z,72.924805
2019-05-07T07:53:42.626Z,73.4375
2019-05-07T07:54:42.986Z,73.571777
2019-05-07T07:55:42.775Z,74.389648
2019-05-07T07:56:49.738Z,74.700928
2019-05-07T07:57:43.795Z,74.359131
2019-05-07T07:58:42.961Z,74.768066
2019-05-07T07:59:42.982Z,74.32251
2019-05-07T08:00:42.958Z,71.765137
2019-05-07T08:01:43.003Z,71.966553
2019-05-07T08:02:43.093Z,72.070312
2019-05-07T08:03:43.132Z,72.479248
2019-05-07T08:04:43.296Z,70.294189
2019-05-07T08:05:43.382Z,70.397949
2019-05-07T08:06:43.411Z,71.5271
2019-05-07T08:07:43.422Z,71.289062
2019-05-07T08:08:43.455Z,70.159912
2019-05-07T08:09:43.522Z,68.42041
2019-05-07T08:10:43.565Z,69.171143
2019-05-07T08:11:43.594Z,68.762207
2019-05-07T08:12:43.626Z,69.476318
2019-05-07T08:13:43.660Z,69.476318
2019-05-07T08:14:43.709Z,70.062256
2019-05-07T08:15:43.725Z,68.933105
2019-05-07T08:16:43.771Z,68.084717
2019-05-07T08:17:43.806Z,67.401123
2019-05-07T08:18:43.910Z,68.011475
2019-05-07T08:19:43.948Z,69.244385
2019-05-07T08:20:44.046Z,68.188477
2019-05-07T08:21:44.112Z,67.266846
2019-05-07T08:22:44.253Z,67.474365
2019-05-07T08:23:44.275Z,66.009521
2019-05-07T08:24:44.457Z,65.435791
2019-05-07T08:25:44.354Z,64.587402
2019-05-07T08:26:44.431Z,62.286377
2019-05-07T08:27:44.456Z,61.981201
2019-05-07T08:28:44.490Z,61.340332
2019-05-07T08:29:44.579Z,60.015869
2019-05-07T08:30:44.652Z,59.783936
2019-05-07T08:31:44.853Z,59.552002
2019-05-07T08:32:44.794Z,61.077881
2019-05-07T08:33:44.899Z,60.906982
2019-05-07T08:34:45.014Z,62.231445
2019-05-07T08:35:45.106Z,60.119629
2019-05-07T08:36:45.258Z,60.424805
2019-05-07T08:37:45.363Z,61.541748
2019-05-07T08:38:45.391Z,61.853027
2019-05-07T08:39:45.401Z,60.760498
2019-05-07T08:40:45.431Z,62.72583
2019-05-07T08:41:45.444Z,63.537598
2019-05-07T08:42:45.449Z,63.513184
2019-05-07T08:43:45.459Z,61.779785
2019-05-07T08:44:46.447Z,62.182617
2019-05-07T08:45:45.496Z,60.552979
2019-05-07T08:46:45.496Z,60.760498
2019-05-07T08:47:45.509Z,58.618164
2019-05-07T08:48:45.543Z,60.479736
2019-05-07T08:49:45.573Z,62.011719
2019-05-07T08:50:45.604Z,62.420654
2019-05-07T08:51:45.626Z,62.518311
2019-05-07T08:52:45.662Z,57.727051
2019-05-07T08:53:45.682Z,59.356689
2019-05-07T08:54:45.672Z,59.796143
2019-05-07T08:55:45.748Z,60.919189
2019-05-07T08:56:45.764Z,59.588623
2019-05-07T08:57:46.046Z,59.893799
2019-05-07T08:58:45.921Z,61.633301
2019-05-07T08:59:57.385Z,60.406494
2019-05-07T09:00:47.090Z,61.016846
2019-05-07T09:01:46.107Z,60.028076
2019-05-07T09:02:46.110Z,60.943604
2019-05-07T09:03:46.142Z,59.515381
2019-05-07T09:04:46.143Z,59.619141
2019-05-07T09:05:46.187Z,57.092285
2019-05-07T09:06:46.206Z,57.196045
2019-05-07T09:07:46.248Z,58.03833
2019-05-07T09:08:46.304Z,58.551025
2019-05-07T09:09:46.309Z,57.733154
2019-05-07T09:10:46.327Z,59.191895
2019-05-07T09:11:46.389Z,60.827637
2019-05-07T09:12:46.398Z,61.364746
2019-05-07T09:13:46.406Z,61.05957
2019-05-07T09:14:46.409Z,61.05957
2019-05-07T09:15:46.436Z,62.493896
2019-05-07T09:16:46.490Z,62.390137
2019-05-07T09:17:46.497Z,61.645508
2019-05-07T09:18:46.552Z,61.846924
2019-05-07T09:19:51.060Z,62.567139
2019-05-07T09:20:46.576Z,62.329102
2019-05-07T09:21:46.642Z,62.225342
2019-05-07T09:22:46.639Z,60.491943
2019-05-07T09:23:46.647Z,61.102295
2019-05-07T09:24:46.675Z,60.766602
2019-05-07T09:25:46.668Z,59.234619
2019-05-07T09:26:46.700Z,59.442139
2019-05-07T09:27:46.764Z,59.106445
2019-05-07T09:28:46.788Z,59.313965
2019-05-07T09:29:46.794Z,60.333252
2019-05-07T09:30:46.849Z,59.619141
2019-05-07T09:31:46.889Z,58.392334
2019-05-07T09:32:46.918Z,59.820557
2019-05-07T09:33:46.921Z,60.742188
2019-05-07T09:34:46.981Z,60.638428
2019-05-07T09:35:46.985Z,59.210205
2019-05-07T09:36:47.104Z,58.392334
2019-05-07T09:37:47.146Z,59.002686
2019-05-07T09:38:56.638Z,58.520508
2019-05-07T09:39:48.271Z,58.728027
2019-05-07T09:40:47.283Z,59.954834
2019-05-07T09:41:47.493Z,59.851074
2019-05-07T09:42:47.513Z,58.624268
2019-05-07T09:43:47.522Z,59.338379
2019-05-07T09:44:47.537Z,57.60498
2019-05-07T09:45:47.564Z,57.836914
2019-05-07T09:46:47.607Z,58.856201
2019-05-07T09:47:47.626Z,59.777832
2019-05-07T09:48:47.623Z,58.447266
2019-05-07T09:50:00.363Z,58.831787
2019-05-07T09:50:47.645Z,60.15625
2019-05-07T09:51:47.685Z,60.668945
2019-05-07T09:52:47.692Z,60.742188
2019-05-07T09:53:47.712Z,58.392334
2019-05-07T09:54:47.727Z,59.002686
2019-05-07T09:55:47.738Z,59.411621
2019-05-07T09:56:47.756Z,61.657715
2019-05-07T09:57:47.832Z,59.002686
2019-05-07T09:58:47.872Z,59.924316
2019-05-07T09:59:47.927Z,60.125732
2019-05-07T10:00:47.924Z,59.313965
2019-05-07T10:01:47.938Z,60.437012
2019-05-07T10:02:47.976Z,60.510254
2019-05-07T10:03:47.988Z,60.302734
2019-05-07T10:04:48.045Z,59.893799
2019-05-07T10:05:48.061Z,59.893799
2019-05-07T10:06:48.091Z,59.997559
2019-05-07T10:07:48.122Z,60.375977
2019-05-07T10:08:48.155Z,59.356689
2019-05-07T10:09:48.160Z,58.135986
2019-05-07T10:10:50.564Z,60.144043
2019-05-07T10:11:48.186Z,58.721924
2019-05-07T10:12:48.211Z,56.854248
2019-05-07T10:13:48.219Z,61.108398
2019-05-07T10:14:48.222Z,59.246826
2019-05-07T10:15:48.236Z,56.5979
2019-05-07T10:16:48.242Z,57.922363
2019-05-07T10:17:48.284Z,56.500244
2019-05-07T10:18:48.322Z,55.584717
2019-05-07T10:19:48.335Z,57.519531
2019-05-07T10:20:48.463Z,56.878662
2019-05-07T10:21:48.485Z,56.37207
2019-05-07T10:22:48.524Z,55.731201
2019-05-07T10:23:48.610Z,55.426025
2019-05-07T10:24:48.632Z,53.69873
2019-05-07T10:25:48.647Z,55.505371
2019-05-07T10:26:48.684Z,52.050781
2019-05-07T10:27:48.708Z,51.5625
2019-05-07T10:28:48.749Z,52.478027
2019-05-07T10:29:48.844Z,50.524902
2019-05-07T10:30:48.887Z,52.252197
2019-05-07T10:31:48.933Z,51.696777
2019-05-07T10:32:48.959Z,50.250244
2019-05-07T10:33:52.244Z,51.116943
2019-05-07T10:34:50.021Z,49.725342
2019-05-07T10:35:50.083Z,48.590088
2019-05-07T10:36:52.193Z,47.20459
2019-05-07T10:37:52.568Z,46.936035
2019-05-07T10:38:52.012Z,45.379639
2019-05-07T10:39:51.950Z,44.915771
2019-05-07T10:40:50.463Z,41.949463
2019-05-07T10:41:50.486Z,41.61377
2019-05-07T10:42:51.868Z,39.215088
2019-05-07T10:43:49.527Z,40.441895
2019-05-07T10:44:49.563Z,40.948486
2019-05-07T10:45:49.632Z,42.053223
2019-05-07T10:46:52.528Z,40.161133
2019-05-07T10:47:49.734Z,38.891602
2019-05-07T10:48:50.767Z,40.014648
2019-05-07T10:49:49.817Z,42.700195
2019-05-07T10:50:51.663Z,39.819336
2019-05-07T10:51:51.763Z,38.598633
2019-05-07T10:52:49.869Z,37.792969
2019-05-07T10:53:51.768Z,39.703369
2019-05-07T10:54:57.414Z,37.573242
2019-05-07T10:55:50.952Z,37.286377
2019-05-07T10:56:52.414Z,37.994385
2019-05-07T10:57:50.002Z,38.916016
2019-05-07T10:58:52.176Z,38.269043
2019-05-07T10:59:52.334Z,39.611816
2019-05-07T11:00:52.285Z,40.740967
2019-05-07T11:01:51.978Z,40.899658
2019-05-07T11:02:51.808Z,42.370605
2019-05-07T11:03:51.699Z,44.134521
2019-05-07T11:04:53.050Z,44.73877
2019-05-07T11:05:50.198Z,44.537354
2019-05-07T11:06:52.151Z,45.147705
2019-05-07T11:07:50.368Z,45.776367
2019-05-07T11:08:51.954Z,47.113037
2019-05-07T11:09:52.359Z,45.513916
2019-05-07T11:10:52.148Z,45.330811
2019-05-07T11:11:51.879Z,45.941162
2019-05-07T11:12:51.700Z,47.033691
2019-05-07T11:13:55.406Z,45.373535
2019-05-07T11:14:51.666Z,44.903564
2019-05-07T11:15:51.854Z,46.19751
2019-05-07T11:16:52.038Z,45.037842
2019-05-07T11:17:52.202Z,45.178223
2019-05-07T11:18:51.729Z,41.546631
2019-05-07T11:19:51.065Z,43.078613
2019-05-07T11:20:53.313Z,43.280029
2019-05-07T11:21:52.083Z,41.204834
2019-05-07T11:22:52.170Z,43.182373
2019-05-07T11:23:52.247Z,43.908691
2019-05-07T11:24:52.197Z,44.317627
2019-05-07T11:25:52.729Z,47.174072